createdAt,value
2022-10-04T00:03:06.911Z,0
2022-10-04T00:08:30.061Z,0
2022-10-04T00:13:52.486Z,0
2022-10-04T00:19:15.130Z,0
2022-10-04T00:24:37.491Z,0
2022-10-04T00:29:59.820Z,0
2022-10-04T00:40:44.872Z,0
2022-10-04T00:46:07.589Z,0
2022-10-04T00:51:30.489Z,0
2022-10-04T00:56:52.768Z,0
2022-10-04T01:02:26.909Z,0
2022-10-04T01:07:49.960Z,0
2022-10-04T01:13:13.285Z,0
2022-10-04T01:18:38.809Z,0
2022-10-04T01:24:01.464Z,0
2022-10-04T01:29:44.652Z,0
2022-10-04T01:35:06.799Z,0
2022-10-04T01:40:29.199Z,0
2022-10-04T01:45:52.528Z,0
2022-10-04T01:51:15.093Z,0
2022-10-04T01:56:37.892Z,0
2022-10-04T02:02:00.799Z,0
2022-10-04T02:07:32.807Z,0
2022-10-04T02:12:55.134Z,0
2022-10-04T02:18:17.391Z,0
2022-10-04T02:23:39.910Z,0
2022-10-04T02:34:27.065Z,0
2022-10-04T02:40:10.942Z,0
2022-10-04T02:45:33.233Z,0
2022-10-04T02:50:55.523Z,0
2022-10-04T02:56:18.025Z,0
2022-10-04T03:01:40.716Z,0
2022-10-04T03:07:04.657Z,0
2022-10-04T03:12:27.511Z,0
2022-10-04T03:17:49.790Z,0
2022-10-04T03:23:12.172Z,0
2022-10-04T03:28:35.012Z,0
2022-10-04T03:33:57.986Z,0
2022-10-04T03:39:23.493Z,0
2022-10-04T03:44:46.555Z,0
2022-10-04T03:50:09.205Z,0
2022-10-04T03:55:33.584Z,0
2022-10-04T04:00:56.154Z,0
2022-10-04T04:06:19.169Z,0
2022-10-04T04:11:41.771Z,0
2022-10-04T04:17:05.038Z,0
2022-10-04T04:27:50.183Z,0
2022-10-04T04:33:22.802Z,0
2022-10-04T04:38:45.308Z,0
2022-10-04T04:44:07.920Z,0
2022-10-04T04:49:39.892Z,0
2022-10-04T04:55:02.371Z,0
2022-10-04T05:00:25.353Z,0
2022-10-04T05:05:47.943Z,0
2022-10-04T05:11:10.300Z,0
2022-10-04T05:16:33.052Z,0
2022-10-04T05:21:55.757Z,0
2022-10-04T05:27:18.429Z,0
2022-10-04T05:32:41.044Z,0
2022-10-04T05:38:07.900Z,0
2022-10-04T05:43:36.398Z,0
2022-10-04T05:48:58.952Z,0.1
2022-10-04T05:54:21.592Z,0.1
2022-10-04T05:59:47.200Z,0.1
2022-10-04T06:05:09.693Z,0.1
2022-10-04T06:10:32.338Z,0.1
2022-10-04T06:21:19.420Z,0.2
2022-10-04T06:26:44.899Z,0.3
2022-10-04T06:32:07.333Z,0.3
2022-10-04T06:37:29.741Z,0.4
2022-10-04T06:42:55.469Z,0.5
2022-10-04T06:48:18.227Z,0.6
2022-10-04T06:53:40.796Z,0.5
2022-10-04T06:59:06.216Z,0.5
2022-10-04T07:04:41.287Z,0.4
2022-10-04T07:10:34.303Z,0.5
2022-10-04T07:16:02.613Z,0.6
2022-10-04T07:21:25.551Z,0.6
2022-10-04T07:26:48.350Z,1.2
2022-10-04T07:32:10.999Z,0.7
2022-10-04T07:37:34.276Z,0.9
2022-10-04T07:43:00.079Z,1.3
2022-10-04T07:48:23.186Z,1.2
2022-10-04T07:53:49.022Z,1.3
2022-10-04T07:59:11.982Z,1.3
2022-10-04T08:04:34.300Z,0.8
2022-10-04T08:09:56.592Z,0.9
2022-10-04T08:15:19.268Z,3.1
2022-10-04T08:20:45.485Z,3.9
2022-10-04T08:26:09.336Z,4
2022-10-04T08:31:32.221Z,2.2
2022-10-04T08:36:56.114Z,4.1
2022-10-04T08:42:19.462Z,3.9
2022-10-04T08:47:46.132Z,4
2022-10-04T08:53:11.973Z,3.7
2022-10-04T08:58:34.948Z,2.1
2022-10-04T09:03:57.908Z,2.1
2022-10-04T09:09:20.798Z,3.6
2022-10-04T09:14:43.655Z,4.1
2022-10-04T09:20:26.588Z,4.4
2022-10-04T09:26:02.873Z,5
2022-10-04T09:31:25.711Z,5.1
2022-10-04T09:36:51.621Z,5.1
2022-10-04T09:42:14.605Z,5.2
2022-10-04T09:47:38.390Z,5.2
2022-10-04T09:53:00.979Z,4.8
2022-10-04T09:58:24.589Z,4.8
2022-10-04T10:03:47.361Z,5.5
2022-10-04T10:09:12.919Z,5.3
2022-10-04T10:14:38.388Z,5.1
2022-10-04T10:25:38.211Z,5.2
2022-10-04T10:31:01.208Z,4.9
2022-10-04T10:36:26.897Z,5.1
2022-10-04T10:41:49.864Z,5.4
2022-10-04T10:47:12.838Z,5.1
2022-10-04T10:52:44.375Z,3.8
2022-10-04T10:58:06.234Z,5
2022-10-04T11:03:35.124Z,4.8
2022-10-04T11:09:02.293Z,5.1
2022-10-04T11:14:25.665Z,5.5
2022-10-04T11:19:48.811Z,5.6
2022-10-04T11:25:11.289Z,5.6
2022-10-04T11:30:37.087Z,4.1
2022-10-04T11:35:59.170Z,6.8
2022-10-04T11:41:20.975Z,2.7
2022-10-04T11:46:46.262Z,5.9
2022-10-04T11:52:13.836Z,6.4
2022-10-04T11:57:38.818Z,5.8
2022-10-04T12:03:01.573Z,5.5
2022-10-04T12:08:24.055Z,6.7
2022-10-04T12:13:47.000Z,6
2022-10-04T12:19:11.906Z,6
2022-10-04T12:24:34.458Z,5.6
2022-10-04T12:29:56.877Z,6
2022-10-04T12:35:19.647Z,4.9
2022-10-04T12:40:45.516Z,5.6
2022-10-04T12:46:08.128Z,4.7
2022-10-04T12:51:31.074Z,4.7
2022-10-04T12:57:11.609Z,5
2022-10-04T13:02:34.331Z,4.8
2022-10-04T13:07:57.331Z,4.8
2022-10-04T13:13:20.235Z,4.5
2022-10-04T13:18:55.629Z,4.5
2022-10-04T13:24:18.239Z,4.3
2022-10-04T13:29:50.569Z,4.2
2022-10-04T13:35:21.121Z,4.1
2022-10-04T13:40:43.495Z,4.1
2022-10-04T13:46:06.776Z,3.9
2022-10-04T13:51:33.216Z,3.7
2022-10-04T13:56:55.789Z,3.9
2022-10-04T14:02:18.706Z,3.1
2022-10-04T14:13:14.207Z,3.7
2022-10-04T14:18:36.673Z,3.5
2022-10-04T14:23:59.052Z,3.4
2022-10-04T14:29:21.332Z,3.3
2022-10-04T14:34:44.042Z,3.1
2022-10-04T14:40:05.583Z,2.8
2022-10-04T14:45:28.045Z,2.5
2022-10-04T14:50:51.145Z,2.1
2022-10-04T14:56:18.570Z,0.8
2022-10-04T15:01:39.933Z,0.4
2022-10-04T15:07:02.116Z,0.4
2022-10-04T15:12:36.617Z,0.4
2022-10-04T15:18:34.574Z,0.5
2022-10-04T15:23:59.855Z,0.5
2022-10-04T15:29:23.170Z,0.5
2022-10-04T15:34:45.560Z,0.5
2022-10-04T15:40:08.006Z,0.4
2022-10-04T15:45:32.921Z,0.4
2022-10-04T15:50:55.756Z,0.3
2022-10-04T15:56:18.170Z,0.3
2022-10-04T16:01:40.621Z,0.3
2022-10-04T16:07:06.236Z,0.2
2022-10-04T16:12:32.010Z,0.2
2022-10-04T16:17:54.394Z,0.1
2022-10-04T16:23:16.835Z,0.1
2022-10-04T16:28:39.603Z,0.1
2022-10-04T16:34:02.658Z,0.1
2022-10-04T16:39:25.327Z,0.1
2022-10-04T16:45:05.462Z,0.1
2022-10-04T16:50:27.904Z,0.1
2022-10-04T16:55:50.049Z,0.1
2022-10-04T17:01:15.232Z,0
2022-10-04T17:06:37.733Z,0
2022-10-04T17:12:00.203Z,0
2022-10-04T17:17:22.603Z,0
2022-10-04T17:22:45.244Z,0
2022-10-04T17:28:07.847Z,0
2022-10-04T17:33:30.844Z,0
2022-10-04T17:38:53.335Z,0
2022-10-04T17:44:16.206Z,0
2022-10-04T17:49:39.625Z,0
2022-10-04T17:55:04.720Z,0
2022-10-04T18:00:27.298Z,0
2022-10-04T18:05:49.819Z,0
2022-10-04T18:11:12.500Z,0
2022-10-04T18:16:42.433Z,0
2022-10-04T18:22:05.974Z,0
2022-10-04T18:27:28.399Z,0
2022-10-04T18:32:50.981Z,0
2022-10-04T18:38:13.273Z,0
2022-10-04T18:43:35.595Z,0
2022-10-04T18:49:01.032Z,0
2022-10-04T18:54:35.866Z,0
2022-10-04T18:59:58.351Z,0
2022-10-04T19:05:20.874Z,0
2022-10-04T19:10:43.308Z,0
2022-10-04T19:16:06.030Z,0
2022-10-04T19:21:29.115Z,0
2022-10-04T19:26:52.253Z,0
2022-10-04T19:32:15.704Z,0
2022-10-04T19:37:38.327Z,0
2022-10-04T19:43:01.002Z,0
2022-10-04T19:48:24.746Z,0
2022-10-04T19:53:47.181Z,0
2022-10-04T19:59:12.853Z,0
2022-10-04T20:04:35.635Z,0
2022-10-04T20:09:59.861Z,0
2022-10-04T20:15:26.743Z,0
2022-10-04T20:20:50.459Z,0
2022-10-04T20:26:14.637Z,0
2022-10-04T20:31:36.917Z,0
2022-10-04T20:42:26.463Z,0
2022-10-04T20:47:48.911Z,0
2022-10-04T20:53:11.375Z,0
2022-10-04T20:58:33.808Z,0
2022-10-04T21:03:57.018Z,0
2022-10-04T21:09:19.504Z,0
2022-10-04T21:14:41.960Z,0
2022-10-04T21:20:04.539Z,0
2022-10-04T21:25:27.285Z,0
2022-10-04T21:30:49.763Z,0
2022-10-04T21:36:15.417Z,0
2022-10-04T21:41:40.195Z,0
2022-10-04T21:47:02.330Z,0
2022-10-04T21:52:25.049Z,0
2022-10-04T21:57:47.859Z,0
2022-10-04T22:03:10.741Z,0
2022-10-04T22:08:33.146Z,0
2022-10-04T22:14:13.396Z,0
2022-10-04T22:19:35.853Z,0
2022-10-04T22:30:21.149Z,0
2022-10-04T22:35:43.504Z,0
2022-10-04T22:41:06.128Z,0
2022-10-04T22:46:28.813Z,0
2022-10-04T22:51:57.401Z,0
2022-10-04T22:57:19.803Z,0
2022-10-04T23:02:42.353Z,0
2022-10-04T23:08:07.670Z,0
2022-10-04T23:13:31.425Z,0
2022-10-04T23:18:53.914Z,0
2022-10-04T23:24:16.202Z,0
2022-10-04T23:29:38.423Z,0
2022-10-04T23:35:00.995Z,0
2022-10-04T23:40:23.560Z,0
2022-10-04T23:45:45.892Z,0
2022-10-04T23:51:08.515Z,0
2022-10-04T23:56:31.797Z,0
